Climatologie pour Saint-Brevin les Pins
Jour • Résumé pour juin 10, 2017 Système :  Métrique    Anglais   Mixte
« - 1 jour
+ 1 jour »
Jour Semaine Mois Année Personnalisé
  Maximum : Minimum : Moyenne :
Température sous abri : 22.6 °C 12.2 °C 17.9 °C
Point de rosée : 17.7 °C 11.6 °C 14.4 °C
Humidité : 97 % 61 % 81 %
Vitesse du vent : 19.3 km/h 0.0 km/h 4.6 km/h
Rafale : 24.1 km/h - -
Direction :- - WSW
Pression : 1019.9 hPa 1018.2 hPa -
Précipitations : 0.0 mm    
Historical Graphs
 
 
Tableau de données pour juin 10, 2017
Heure Tempé Pt rosée Pression Vent Vitesse Rafale Humidité Taux pluie (/hr) Soleil
00:00 16.2 °C 13.8 °C 1019.2 hPa Calm   11.3 km/h 86 % 0.0 mm 0 W/m2
00:05 16.1 °C 13.8 °C 1019.2 hPa West 1.6 km/h 9.7 km/h 86 % 0.0 mm 0 W/m2
00:15 16.0 °C 13.8 °C 1019.2 hPa Calm   6.4 km/h 87 % 0.0 mm 0 W/m2
00:20 16.1 °C 13.8 °C 1019.2 hPa WSW 1.6 km/h 6.4 km/h 86 % 0.0 mm 0 W/m2
00:25 16.1 °C 13.9 °C 1019.2 hPa WSW 1.6 km/h 6.4 km/h 87 % 0.0 mm 0 W/m2
00:30 16.1 °C 13.9 °C 1019.2 hPa WSW 3.2 km/h 6.4 km/h 87 % 0.0 mm 0 W/m2
00:35 15.9 °C 13.8 °C 1019.2 hPa WSW 4.8 km/h 6.4 km/h 87 % 0.0 mm 0 W/m2
00:40 15.9 °C 13.8 °C 1018.8 hPa Calm   6.4 km/h 87 % 0.0 mm 0 W/m2
00:45 15.9 °C 14.0 °C 1018.8 hPa Calm   6.4 km/h 88 % 0.0 mm 0 W/m2
00:50 15.9 °C 13.9 °C 1018.8 hPa Calm   4.8 km/h 88 % 0.0 mm 0 W/m2
01:00 15.7 °C 13.7 °C 1018.8 hPa WSW 1.6 km/h 3.2 km/h 88 % 0.0 mm 0 W/m2
01:05 15.6 °C 13.8 °C 1018.8 hPa WSW 3.2 km/h 3.2 km/h 89 % 0.0 mm 0 W/m2
01:10 15.6 °C 13.8 °C 1018.8 hPa Calm   6.4 km/h 89 % 0.0 mm 0 W/m2
01:15 15.6 °C 13.7 °C 1018.8 hPa Calm   6.4 km/h 89 % 0.0 mm 0 W/m2
01:20 15.4 °C 13.8 °C 1018.8 hPa Calm   4.8 km/h 90 % 0.0 mm 0 W/m2
01:25 15.3 °C 13.7 °C 1018.8 hPa SW 3.2 km/h 4.8 km/h 90 % 0.0 mm 0 W/m2
01:30 15.3 °C 13.5 °C 1018.8 hPa Calm   4.8 km/h 89 % 0.0 mm 0 W/m2
01:35 15.5 °C 13.7 °C 1018.8 hPa West 1.6 km/h 8.0 km/h 89 % 0.0 mm 0 W/m2
01:45 15.4 °C 13.6 °C 1018.8 hPa SW 3.2 km/h 6.4 km/h 89 % 0.0 mm 0 W/m2
01:50 15.4 °C 13.6 °C 1018.8 hPa Calm   6.4 km/h 89 % 0.0 mm 0 W/m2
01:55 15.5 °C 13.7 °C 1018.8 hPa West 3.2 km/h 8.0 km/h 89 % 0.0 mm 0 W/m2
02:00 15.6 °C 13.7 °C 1018.8 hPa Calm   8.0 km/h 89 % 0.0 mm 0 W/m2
02:05 15.6 °C 13.8 °C 1018.5 hPa SSW 6.4 km/h 8.0 km/h 89 % 0.0 mm 0 W/m2
02:10 15.7 °C 13.9 °C 1018.8 hPa SSW 4.8 km/h 8.0 km/h 89 % 0.0 mm 0 W/m2
02:15 15.7 °C 13.9 °C 1018.8 hPa SSW 3.2 km/h 6.4 km/h 89 % 0.0 mm 0 W/m2
02:20 15.7 °C 13.9 °C 1018.8 hPa SSW 4.8 km/h 6.4 km/h 89 % 0.0 mm 0 W/m2
02:30 15.8 °C 14.0 °C 1018.8 hPa SSW 4.8 km/h 8.0 km/h 89 % 0.0 mm 0 W/m2
02:35 15.7 °C 13.9 °C 1018.8 hPa SSW 1.6 km/h 8.0 km/h 89 % 0.0 mm 0 W/m2
02:40 15.7 °C 13.7 °C 1018.8 hPa WSW 1.6 km/h 6.4 km/h 88 % 0.0 mm 0 W/m2
02:45 15.6 °C 13.7 °C 1018.8 hPa West 1.6 km/h 6.4 km/h 89 % 0.0 mm 0 W/m2
02:50 15.4 °C 13.6 °C 1018.8 hPa Calm   6.4 km/h 89 % 0.0 mm 0 W/m2
02:55 15.2 °C 13.4 °C 1018.8 hPa SW 1.6 km/h 6.4 km/h 89 % 0.0 mm 0 W/m2
03:00 14.9 °C 13.3 °C 1018.8 hPa SW 1.6 km/h 6.4 km/h 90 % 0.0 mm 0 W/m2
03:05 14.9 °C 13.5 °C 1018.8 hPa SW 3.2 km/h 4.8 km/h 91 % 0.0 mm 0 W/m2
03:15 14.4 °C 12.9 °C 1018.8 hPa SW 3.2 km/h 4.8 km/h 91 % 0.0 mm 0 W/m2
03:20 14.3 °C 13.0 °C 1018.8 hPa Calm   4.8 km/h 92 % 0.0 mm 0 W/m2
03:25 14.1 °C 12.8 °C 1018.8 hPa SW 1.6 km/h 4.8 km/h 92 % 0.0 mm 0 W/m2
03:30 14.3 °C 13.2 °C 1018.8 hPa SW 1.6 km/h 4.8 km/h 93 % 0.0 mm 0 W/m2
03:35 14.1 °C 13.0 °C 1018.8 hPa Calm   4.8 km/h 93 % 0.0 mm 0 W/m2
03:40 13.9 °C 12.8 °C 1018.8 hPa Calm   4.8 km/h 93 % 0.0 mm 0 W/m2
03:45 14.0 °C 12.9 °C 1018.8 hPa SW 1.6 km/h 3.2 km/h 93 % 0.0 mm 0 W/m2
03:50 13.9 °C 12.8 °C 1018.8 hPa SW 3.2 km/h 3.2 km/h 93 % 0.0 mm 0 W/m2
04:00 13.8 °C 12.9 °C 1018.8 hPa Calm   4.8 km/h 94 % 0.0 mm 0 W/m2
04:05 13.8 °C 12.8 °C 1018.5 hPa Calm   4.8 km/h 94 % 0.0 mm 0 W/m2
04:10 13.7 °C 12.7 °C 1018.5 hPa SW 1.6 km/h 4.8 km/h 94 % 0.0 mm 0 W/m2
04:15 13.5 °C 12.6 °C 1018.5 hPa SW 1.6 km/h 4.8 km/h 94 % 0.0 mm 0 W/m2
04:20 13.4 °C 12.4 °C 1018.5 hPa Calm   4.8 km/h 94 % 0.0 mm 0 W/m2
04:25 13.3 °C 12.3 °C 1018.5 hPa Calm   3.2 km/h 94 % 0.0 mm 0 W/m2
04:30 13.2 °C 12.4 °C 1018.5 hPa Calm   1.6 km/h 95 % 0.0 mm 0 W/m2
04:40 12.9 °C 12.2 °C 1018.5 hPa Calm     95 % 0.0 mm 0 W/m2
04:45 12.9 °C 12.2 °C 1018.5 hPa Calm   1.6 km/h 95 % 0.0 mm 0 W/m2
04:50 12.7 °C 11.9 °C 1018.5 hPa Calm   1.6 km/h 95 % 0.0 mm 0 W/m2
05:00 12.8 °C 12.0 °C 1018.5 hPa Calm   3.2 km/h 95 % 0.0 mm 0 W/m2
05:05 12.9 °C 12.3 °C 1018.5 hPa Calm   3.2 km/h 96 % 0.0 mm 0 W/m2
05:10 12.9 °C 12.3 °C 1018.5 hPa Calm     96 % 0.0 mm 0 W/m2
05:20 12.7 °C 11.9 °C 1018.2 hPa SW 3.2 km/h 4.8 km/h 95 % 0.0 mm 0 W/m2
05:25 12.6 °C 12.0 °C 1018.2 hPa Calm   4.8 km/h 96 % 0.0 mm 0 W/m2
05:30 12.6 °C 12.0 °C 1018.2 hPa SW 3.2 km/h 3.2 km/h 96 % 0.0 mm 0 W/m2
05:35 12.6 °C 12.0 °C 1018.5 hPa Calm   3.2 km/h 96 % 0.0 mm 0 W/m2
05:40 12.7 °C 12.0 °C 1018.2 hPa Calm   3.2 km/h 96 % 0.0 mm 0 W/m2
05:45 12.7 °C 12.0 °C 1018.5 hPa Calm   3.2 km/h 96 % 0.0 mm 0 W/m2
05:50 12.7 °C 12.0 °C 1018.5 hPa Calm     96 % 0.0 mm 0 W/m2
05:55 12.7 °C 12.0 °C 1018.5 hPa Calm   1.6 km/h 96 % 0.0 mm 0 W/m2
06:00 12.6 °C 12.0 °C 1018.5 hPa Calm   1.6 km/h 96 % 0.0 mm 0 W/m2
06:05 12.4 °C 11.8 °C 1018.5 hPa Calm   1.6 km/h 96 % 0.0 mm 0 W/m2
06:15 12.3 °C 11.7 °C 1018.5 hPa Calm     96 % 0.0 mm 0 W/m2
06:20 12.3 °C 11.7 °C 1018.5 hPa Calm     96 % 0.0 mm 5 W/m2
06:25 12.3 °C 11.7 °C 1018.5 hPa Calm     96 % 0.0 mm 7 W/m2
06:30 12.2 °C 11.6 °C 1018.5 hPa Calm   1.6 km/h 96 % 0.0 mm 9 W/m2
06:35 12.3 °C 11.7 °C 1018.5 hPa Calm   1.6 km/h 96 % 0.0 mm 9 W/m2
06:40 12.3 °C 11.7 °C 1018.5 hPa Calm   3.2 km/h 96 % 0.0 mm 12 W/m2
06:45 12.3 °C 11.7 °C 1018.5 hPa SW 1.6 km/h 3.2 km/h 96 % 0.0 mm 12 W/m2
06:50 12.4 °C 11.9 °C 1018.5 hPa Calm   3.2 km/h 97 % 0.0 mm 18 W/m2
07:00 12.4 °C 11.9 °C 1018.5 hPa Calm   1.6 km/h 97 % 0.0 mm 21 W/m2
07:05 12.6 °C 12.1 °C 1018.5 hPa Calm   1.6 km/h 97 % 0.0 mm 25 W/m2
07:15 13.0 °C 12.5 °C 1018.5 hPa Calm   3.2 km/h 97 % 0.0 mm 35 W/m2
07:20 13.3 °C 12.8 °C 1018.5 hPa Calm   3.2 km/h 97 % 0.0 mm 42 W/m2
07:25 13.4 °C 13.0 °C 1018.5 hPa Calm   4.8 km/h 97 % 0.0 mm 49 W/m2
07:30 13.6 °C 13.1 °C 1018.5 hPa SW 1.6 km/h 4.8 km/h 97 % 0.0 mm 58 W/m2
07:35 13.8 °C 13.4 °C 1018.5 hPa SW 1.6 km/h 4.8 km/h 97 % 0.0 mm 63 W/m2
07:45 14.4 °C 13.9 °C 1018.8 hPa Calm   4.8 km/h 97 % 0.0 mm 84 W/m2
07:50 14.7 °C 14.2 °C 1018.8 hPa SSE 1.6 km/h 6.4 km/h 97 % 0.0 mm 214 W/m2
07:55 14.9 °C 14.3 °C 1018.8 hPa SSE 1.6 km/h 6.4 km/h 96 % 0.0 mm 269 W/m2
08:00 15.4 °C 14.8 °C 1018.8 hPa SSE 1.6 km/h 6.4 km/h 96 % 0.0 mm 299 W/m2
08:05 15.8 °C 15.2 °C 1018.5 hPa SSE 1.6 km/h 6.4 km/h 96 % 0.0 mm 329 W/m2
08:10 16.3 °C 15.3 °C 1018.5 hPa Calm   8.0 km/h 94 % 0.0 mm 341 W/m2
08:15 16.5 °C 15.4 °C 1018.8 hPa South 4.8 km/h 8.0 km/h 93 % 0.0 mm 220 W/m2
08:20 16.7 °C 15.6 °C 1018.8 hPa SSE 3.2 km/h 8.0 km/h 93 % 0.0 mm 318 W/m2
08:30 17.1 °C 15.6 °C 1018.8 hPa South 6.4 km/h 9.7 km/h 91 % 0.0 mm 281 W/m2
08:35 17.3 °C 15.6 °C 1018.8 hPa SE 1.6 km/h 9.7 km/h 90 % 0.0 mm 373 W/m2
08:40 17.6 °C 15.7 °C 1018.8 hPa SSW 8.0 km/h 9.7 km/h 89 % 0.0 mm 248 W/m2
08:45 17.7 °C 15.5 °C 1018.8 hPa South 6.4 km/h 11.3 km/h 87 % 0.0 mm 213 W/m2
08:50 18.0 °C 15.8 °C 1018.8 hPa South 9.7 km/h 12.9 km/h 87 % 0.0 mm 264 W/m2
08:55 17.8 °C 15.5 °C 1018.8 hPa SSE 9.7 km/h 14.5 km/h 86 % 0.0 mm 167 W/m2
09:00 17.8 °C 15.2 °C 1018.8 hPa SSW 8.0 km/h 14.5 km/h 85 % 0.0 mm 195 W/m2
09:05 17.9 °C 15.4 °C 1019.2 hPa SSW 3.2 km/h 14.5 km/h 85 % 0.0 mm 278 W/m2
09:10 17.9 °C 15.4 °C 1019.2 hPa SSW 9.7 km/h 12.9 km/h 85 % 0.0 mm 265 W/m2
09:15 18.1 °C 15.5 °C 1019.2 hPa South 6.4 km/h 12.9 km/h 85 % 0.0 mm 434 W/m2
09:20 18.4 °C 15.7 °C 1019.2 hPa South 9.7 km/h 14.5 km/h 84 % 0.0 mm 441 W/m2
09:25 18.7 °C 15.5 °C 1019.2 hPa SSW 9.7 km/h 17.7 km/h 82 % 0.0 mm 455 W/m2
09:30 18.8 °C 15.9 °C 1019.2 hPa SSW 6.4 km/h 17.7 km/h 83 % 0.0 mm 471 W/m2
09:35 18.9 °C 15.7 °C 1019.2 hPa South 1.6 km/h 14.5 km/h 82 % 0.0 mm 492 W/m2
09:40 18.9 °C 15.4 °C 1019.2 hPa Calm   12.9 km/h 80 % 0.0 mm 504 W/m2
09:45 18.9 °C 15.6 °C 1019.2 hPa South 4.8 km/h 14.5 km/h 81 % 0.0 mm 512 W/m2
09:50 19.0 °C 15.7 °C 1019.2 hPa WSW 8.0 km/h 14.5 km/h 81 % 0.0 mm 522 W/m2
09:55 19.2 °C 15.9 °C 1019.2 hPa South 16.1 km/h 16.1 km/h 81 % 0.0 mm 538 W/m2
10:00 19.3 °C 15.8 °C 1019.2 hPa South 4.8 km/h 16.1 km/h 80 % 0.0 mm 552 W/m2
10:05 19.4 °C 15.7 °C 1019.2 hPa SSW 9.7 km/h 17.7 km/h 79 % 0.0 mm 568 W/m2
10:10 19.7 °C 15.7 °C 1019.2 hPa SSW 9.7 km/h 17.7 km/h 78 % 0.0 mm 577 W/m2
10:15 19.8 °C 16.0 °C 1019.2 hPa SSE 8.0 km/h 12.9 km/h 79 % 0.0 mm 592 W/m2
10:20 19.9 °C 15.8 °C 1019.2 hPa South 3.2 km/h 14.5 km/h 77 % 0.0 mm 599 W/m2
10:25 19.8 °C 15.9 °C 1019.2 hPa South 8.0 km/h 14.5 km/h 78 % 0.0 mm 615 W/m2
10:30 19.9 °C 16.1 °C 1019.2 hPa South 4.8 km/h 14.5 km/h 79 % 0.0 mm 628 W/m2
10:35 20.1 °C 16.3 °C 1019.2 hPa SSW 9.7 km/h 14.5 km/h 79 % 0.0 mm 643 W/m2
10:45 20.2 °C 16.0 °C 1019.5 hPa SW 3.2 km/h 11.3 km/h 77 % 0.0 mm 661 W/m2
10:50 19.9 °C 15.9 °C 1019.5 hPa WSW 1.6 km/h 12.9 km/h 78 % 0.0 mm 671 W/m2
10:55 20.0 °C 16.2 °C 1019.5 hPa SSW 4.8 km/h 14.5 km/h 79 % 0.0 mm 682 W/m2
11:00 20.0 °C 16.0 °C 1019.5 hPa West 4.8 km/h 14.5 km/h 78 % 0.0 mm 693 W/m2
11:05 20.2 °C 15.8 °C 1019.5 hPa WSW 6.4 km/h 14.5 km/h 76 % 0.0 mm 707 W/m2
11:10 20.4 °C 16.2 °C 1019.5 hPa West 11.3 km/h 14.5 km/h 77 % 0.0 mm 715 W/m2
11:15 20.5 °C 16.3 °C 1019.5 hPa SW 9.7 km/h 16.1 km/h 77 % 0.0 mm 724 W/m2
11:20 20.3 °C 15.7 °C 1019.5 hPa SW 3.2 km/h 17.7 km/h 75 % 0.0 mm 735 W/m2
11:30 20.8 °C 15.8 °C 1019.5 hPa SW 8.0 km/h 12.9 km/h 73 % 0.0 mm 756 W/m2
11:35 20.7 °C 16.1 °C 1019.5 hPa SSW 8.0 km/h 11.3 km/h 75 % 0.0 mm 765 W/m2
11:40 21.1 °C 15.9 °C 1019.5 hPa Calm   16.1 km/h 72 % 0.0 mm 775 W/m2
11:45 21.2 °C 16.3 °C 1019.5 hPa West 6.4 km/h 16.1 km/h 74 % 0.0 mm 780 W/m2
11:50 21.0 °C 16.0 °C 1019.5 hPa SSW 11.3 km/h 12.9 km/h 73 % 0.0 mm 791 W/m2
11:55 20.9 °C 15.7 °C 1019.5 hPa SSW 6.4 km/h 12.9 km/h 72 % 0.0 mm 802 W/m2
12:00 21.1 °C 15.8 °C 1019.5 hPa WSW 4.8 km/h 14.5 km/h 72 % 0.0 mm 803 W/m2
12:05 21.3 °C 16.5 °C 1019.5 hPa SSW 11.3 km/h 16.1 km/h 74 % 0.0 mm 814 W/m2
12:15 21.7 °C 16.7 °C 1019.5 hPa SW 9.7 km/h 16.1 km/h 73 % 0.0 mm 826 W/m2
12:20 21.7 °C 16.4 °C 1019.5 hPa SSW 9.7 km/h 14.5 km/h 72 % 0.0 mm 831 W/m2
12:25 21.7 °C 16.2 °C 1019.9 hPa WSW 6.4 km/h 14.5 km/h 71 % 0.0 mm 838 W/m2
12:35 21.6 °C 15.9 °C 1019.5 hPa SW 8.0 km/h 17.7 km/h 70 % 0.0 mm 846 W/m2
12:40 21.4 °C 15.7 °C 1019.5 hPa WSW 11.3 km/h 17.7 km/h 70 % 0.0 mm 853 W/m2
12:45 21.6 °C 16.3 °C 1019.5 hPa West 9.7 km/h 16.1 km/h 72 % 0.0 mm 860 W/m2
12:50 21.8 °C 16.8 °C 1019.9 hPa WNW 8.0 km/h 16.1 km/h 73 % 0.0 mm 867 W/m2
13:00 22.3 °C 17.7 °C 1019.5 hPa WSW 1.6 km/h 11.3 km/h 75 % 0.0 mm 872 W/m2
13:05 22.1 °C 17.0 °C 1019.5 hPa West 11.3 km/h 11.3 km/h 73 % 0.0 mm 877 W/m2
13:10 21.9 °C 17.3 °C 1019.5 hPa West 6.4 km/h 12.9 km/h 75 % 0.0 mm 877 W/m2
13:15 21.9 °C 16.7 °C 1019.5 hPa WNW 3.2 km/h 12.9 km/h 72 % 0.0 mm 884 W/m2
13:20 21.7 °C 16.9 °C 1019.5 hPa WSW 8.0 km/h 12.9 km/h 74 % 0.0 mm 886 W/m2
13:25 21.8 °C 16.7 °C 1019.5 hPa WNW 3.2 km/h 12.9 km/h 73 % 0.0 mm 889 W/m2
13:30 22.2 °C 16.9 °C 1019.5 hPa West 9.7 km/h 12.9 km/h 72 % 0.0 mm 888 W/m2
13:35 22.1 °C 17.5 °C 1019.5 hPa West 3.2 km/h 12.9 km/h 75 % 0.0 mm 893 W/m2
13:45 21.8 °C 16.3 °C 1019.5 hPa WSW 14.5 km/h 16.1 km/h 71 % 0.0 mm 895 W/m2
13:50 21.9 °C 16.9 °C 1019.5 hPa WSW 6.4 km/h 16.1 km/h 73 % 0.0 mm 893 W/m2
13:55 22.4 °C 17.1 °C 1019.5 hPa NW 6.4 km/h 14.5 km/h 72 % 0.0 mm 893 W/m2
14:00 22.2 °C 16.9 °C 1019.5 hPa NW 9.7 km/h 14.5 km/h 72 % 0.0 mm 893 W/m2
14:05 22.2 °C 16.7 °C 1019.5 hPa West 6.4 km/h 14.5 km/h 71 % 0.0 mm 895 W/m2
14:10 21.9 °C 16.2 °C 1019.5 hPa WNW 4.8 km/h 14.5 km/h 70 % 0.0 mm 896 W/m2
14:15 21.6 °C 15.7 °C 1019.2 hPa WSW 4.8 km/h 17.7 km/h 69 % 0.0 mm 893 W/m2
14:20 21.7 °C 15.7 °C 1019.2 hPa WSW 4.8 km/h 17.7 km/h 69 % 0.0 mm 891 W/m2
14:30 22.2 °C 16.2 °C 1019.2 hPa West 4.8 km/h 12.9 km/h 69 % 0.0 mm 888 W/m2
14:35 22.3 °C 15.9 °C 1019.2 hPa WSW 11.3 km/h 12.9 km/h 67 % 0.0 mm 889 W/m2
14:40 22.3 °C 16.1 °C 1019.2 hPa WNW 12.9 km/h 16.1 km/h 68 % 0.0 mm 884 W/m2
14:45 22.3 °C 16.4 °C 1019.2 hPa NW 3.2 km/h 16.1 km/h 69 % 0.0 mm 879 W/m2
14:50 22.6 °C 15.2 °C 1019.2 hPa West 9.7 km/h 20.9 km/h 63 % 0.0 mm 879 W/m2
14:55 21.7 °C 15.3 °C 1019.2 hPa West 4.8 km/h 20.9 km/h 67 % 0.0 mm 877 W/m2
15:00 21.8 °C 14.5 °C 1019.5 hPa West 12.9 km/h 20.9 km/h 63 % 0.0 mm 870 W/m2
15:05 21.6 °C 14.5 °C 1019.2 hPa West 12.9 km/h 16.1 km/h 64 % 0.0 mm 868 W/m2
15:15 21.4 °C 14.8 °C 1019.2 hPa WSW 11.3 km/h 20.9 km/h 66 % 0.0 mm 858 W/m2
15:20 21.2 °C 16.1 °C 1019.2 hPa WSW 16.1 km/h 22.5 km/h 73 % 0.0 mm 854 W/m2
15:25 21.3 °C 16.9 °C 1019.2 hPa Calm   22.5 km/h 76 % 0.0 mm 847 W/m2
15:30 21.3 °C 16.9 °C 1019.5 hPa WSW 9.7 km/h 22.5 km/h 76 % 0.0 mm 842 W/m2
15:35 20.9 °C 17.2 °C 1019.5 hPa WNW 9.7 km/h 24.1 km/h 79 % 0.0 mm 831 W/m2
15:40 21.5 °C 17.3 °C 1019.2 hPa WNW 8.0 km/h 24.1 km/h 77 % 0.0 mm 830 W/m2
15:45 21.4 °C 17.0 °C 1019.5 hPa WSW 19.3 km/h 24.1 km/h 76 % 0.0 mm 823 W/m2
15:50 20.7 °C 15.9 °C 1019.5 hPa West 12.9 km/h 24.1 km/h 74 % 0.0 mm 814 W/m2
16:00 20.7 °C 15.5 °C 1019.5 hPa WSW 14.5 km/h 24.1 km/h 72 % 0.0 mm 805 W/m2
16:05 20.8 °C 15.4 °C 1019.5 hPa SW 12.9 km/h 24.1 km/h 71 % 0.0 mm 795 W/m2
16:10 20.8 °C 15.5 °C 1019.5 hPa WSW 8.0 km/h 22.5 km/h 72 % 0.0 mm 786 W/m2
16:15 20.7 °C 15.3 °C 1019.5 hPa SW 6.4 km/h 22.5 km/h 71 % 0.0 mm 777 W/m2
16:20 21.2 °C 15.1 °C 1019.5 hPa WNW 9.7 km/h 20.9 km/h 68 % 0.0 mm 772 W/m2
16:25 21.2 °C 14.8 °C 1019.5 hPa WSW 4.8 km/h 20.9 km/h 67 % 0.0 mm 761 W/m2
16:35 21.2 °C 15.3 °C 1019.2 hPa WSW 9.7 km/h 17.7 km/h 69 % 0.0 mm 745 W/m2
16:45 21.2 °C 15.1 °C 1019.2 hPa WSW 11.3 km/h 19.3 km/h 68 % 0.0 mm 726 W/m2
16:50 20.8 °C 14.7 °C 1019.2 hPa West 3.2 km/h 19.3 km/h 68 % 0.0 mm 715 W/m2
16:55 20.8 °C 15.4 °C 1019.2 hPa West 14.5 km/h 17.7 km/h 71 % 0.0 mm 705 W/m2
17:00 21.4 °C 15.9 °C 1019.2 hPa NW 8.0 km/h 16.1 km/h 71 % 0.0 mm 694 W/m2
17:05 21.7 °C 15.5 °C 1019.2 hPa West 8.0 km/h 14.5 km/h 68 % 0.0 mm 687 W/m2
17:10 21.4 °C 15.5 °C 1019.2 hPa WSW 9.7 km/h 14.5 km/h 69 % 0.0 mm 675 W/m2
17:15 21.5 °C 16.2 °C 1019.2 hPa NW 11.3 km/h 17.7 km/h 72 % 0.0 mm 661 W/m2
17:20 21.3 °C 15.4 °C 1019.2 hPa West 9.7 km/h 17.7 km/h 69 % 0.0 mm 650 W/m2
17:25 21.4 °C 15.7 °C 1019.2 hPa WSW 11.3 km/h 22.5 km/h 70 % 0.0 mm 642 W/m2
17:30 21.2 °C 15.7 °C 1019.2 hPa West 3.2 km/h 22.5 km/h 71 % 0.0 mm 626 W/m2
17:35 21.1 °C 15.4 °C 1019.2 hPa WSW 6.4 km/h 17.7 km/h 70 % 0.0 mm 615 W/m2
17:40 20.7 °C 15.2 °C 1019.2 hPa West 16.1 km/h 19.3 km/h 71 % 0.0 mm 605 W/m2
17:45 20.7 °C 15.7 °C 1019.2 hPa NW 11.3 km/h 20.9 km/h 73 % 0.0 mm 592 W/m2
17:50 20.4 °C 15.2 °C 1019.2 hPa NW 11.3 km/h 20.9 km/h 72 % 0.0 mm 580 W/m2
17:55 20.5 °C 15.1 °C 1019.2 hPa WSW 14.5 km/h 19.3 km/h 71 % 0.0 mm 568 W/m2
18:00 20.5 °C 15.5 °C 1019.2 hPa WSW 12.9 km/h 19.3 km/h 73 % 0.0 mm 554 W/m2
18:05 20.8 °C 15.6 °C 1019.2 hPa West 9.7 km/h 19.3 km/h 72 % 0.0 mm 541 W/m2
18:15 20.8 °C 14.9 °C 1019.2 hPa West 6.4 km/h 19.3 km/h 69 % 0.0 mm 517 W/m2
18:20 20.9 °C 15.5 °C 1018.8 hPa WNW 8.0 km/h 19.3 km/h 71 % 0.0 mm 504 W/m2
18:25 21.5 °C 15.1 °C 1019.2 hPa West 4.8 km/h 14.5 km/h 67 % 0.0 mm 492 W/m2
18:30 21.2 °C 14.6 °C 1019.2 hPa WNW 8.0 km/h 14.5 km/h 66 % 0.0 mm 478 W/m2
18:35 21.5 °C 15.3 °C 1018.8 hPa West 1.6 km/h 14.5 km/h 68 % 0.0 mm 464 W/m2
18:40 21.9 °C 15.7 °C 1018.8 hPa NW 4.8 km/h 12.9 km/h 68 % 0.0 mm 450 W/m2
18:45 22.1 °C 14.9 °C 1018.8 hPa WNW 6.4 km/h 11.3 km/h 64 % 0.0 mm 438 W/m2
18:50 21.6 °C 13.7 °C 1018.8 hPa West 4.8 km/h 12.9 km/h 61 % 0.0 mm 427 W/m2
18:55 21.2 °C 13.6 °C 1018.8 hPa West 9.7 km/h 14.5 km/h 62 % 0.0 mm 413 W/m2
19:00 21.1 °C 14.0 °C 1018.8 hPa WNW 3.2 km/h 16.1 km/h 64 % 0.0 mm 399 W/m2
19:05 21.2 °C 14.1 °C 1018.8 hPa SW 8.0 km/h 16.1 km/h 64 % 0.0 mm 383 W/m2
19:10 21.4 °C 13.9 °C 1018.8 hPa WSW 8.0 km/h 12.9 km/h 62 % 0.0 mm 371 W/m2
19:15 21.2 °C 13.6 °C 1018.8 hPa West 9.7 km/h 14.5 km/h 62 % 0.0 mm 357 W/m2
19:20 21.1 °C 14.3 °C 1018.8 hPa West 1.6 km/h 14.5 km/h 65 % 0.0 mm 341 W/m2
19:25 21.2 °C 14.1 °C 1018.5 hPa West 9.7 km/h 12.9 km/h 64 % 0.0 mm 329 W/m2
19:30 21.0 °C 13.7 °C 1018.5 hPa WNW 6.4 km/h 12.9 km/h 63 % 0.0 mm 315 W/m2
19:35 20.9 °C 13.6 °C 1018.8 hPa West 9.7 km/h 12.9 km/h 63 % 0.0 mm 294 W/m2
19:45 21.1 °C 14.2 °C 1018.5 hPa WNW 4.8 km/h 12.9 km/h 65 % 0.0 mm 237 W/m2
19:50 21.1 °C 14.0 °C 1018.5 hPa WNW 4.8 km/h 11.3 km/h 64 % 0.0 mm 213 W/m2
19:55 20.8 °C 13.5 °C 1018.5 hPa West 4.8 km/h 11.3 km/h 63 % 0.0 mm 195 W/m2
20:00 20.7 °C 13.7 °C 1018.5 hPa WNW 3.2 km/h 11.3 km/h 64 % 0.0 mm 188 W/m2
20:05 20.6 °C 13.8 °C 1018.8 hPa SSW 4.8 km/h 14.5 km/h 65 % 0.0 mm 183 W/m2
20:10 20.5 °C 14.2 °C 1018.5 hPa West 4.8 km/h 14.5 km/h 67 % 0.0 mm 178 W/m2
20:15 20.4 °C 13.6 °C 1018.5 hPa West 6.4 km/h 11.3 km/h 65 % 0.0 mm 160 W/m2
20:20 20.4 °C 13.8 °C 1018.5 hPa West 1.6 km/h 11.3 km/h 66 % 0.0 mm 135 W/m2
20:30 20.1 °C 13.7 °C 1018.5 hPa West 6.4 km/h 12.9 km/h 67 % 0.0 mm 109 W/m2
20:35 20.1 °C 13.5 °C 1018.5 hPa West 6.4 km/h 9.7 km/h 66 % 0.0 mm 42 W/m2
20:40 19.9 °C 13.8 °C 1018.5 hPa West 3.2 km/h 9.7 km/h 68 % 0.0 mm 28 W/m2
20:45 19.4 °C 13.8 °C 1018.5 hPa Calm   6.4 km/h 70 % 0.0 mm 26 W/m2
20:55 19.1 °C 13.9 °C 1018.5 hPa West 8.0 km/h 8.0 km/h 72 % 0.0 mm 23 W/m2
21:00 19.2 °C 13.8 °C 1018.5 hPa West 3.2 km/h 11.3 km/h 71 % 0.0 mm 23 W/m2
21:05 19.0 °C 14.0 °C 1018.5 hPa West 6.4 km/h 11.3 km/h 73 % 0.0 mm 21 W/m2
21:15 18.9 °C 13.9 °C 1018.5 hPa West 1.6 km/h 11.3 km/h 73 % 0.0 mm 18 W/m2
21:20 18.6 °C 13.9 °C 1018.5 hPa West 4.8 km/h 9.7 km/h 74 % 0.0 mm 16 W/m2
21:25 18.4 °C 14.1 °C 1018.5 hPa West 4.8 km/h 9.7 km/h 76 % 0.0 mm 14 W/m2
21:30 18.3 °C 14.0 °C 1018.5 hPa West 4.8 km/h 9.7 km/h 76 % 0.0 mm 12 W/m2
21:35 18.2 °C 13.9 °C 1018.5 hPa NW 4.8 km/h 9.7 km/h 76 % 0.0 mm 12 W/m2
21:40 17.8 °C 13.9 °C 1018.5 hPa West 1.6 km/h 8.0 km/h 78 % 0.0 mm 11 W/m2
21:45 17.7 °C 14.0 °C 1018.5 hPa Calm   8.0 km/h 79 % 0.0 mm 9 W/m2
21:50 17.5 °C 14.0 °C 1018.5 hPa Calm   6.4 km/h 80 % 0.0 mm 7 W/m2
21:55 17.2 °C 13.9 °C 1018.5 hPa WNW 4.8 km/h 6.4 km/h 81 % 0.0 mm 5 W/m2
22:00 17.0 °C 13.9 °C 1018.5 hPa Calm   6.4 km/h 82 % 0.0 mm 0 W/m2
22:05 16.9 °C 14.0 °C 1018.5 hPa Calm   4.8 km/h 83 % 0.0 mm 0 W/m2
22:10 16.8 °C 14.1 °C 1018.5 hPa WNW 3.2 km/h 3.2 km/h 84 % 0.0 mm 0 W/m2
22:15 16.7 °C 14.0 °C 1018.5 hPa Calm   3.2 km/h 84 % 0.0 mm 0 W/m2
22:20 16.5 °C 14.0 °C 1018.5 hPa Calm   3.2 km/h 85 % 0.0 mm 0 W/m2
22:25 16.3 °C 13.9 °C 1018.8 hPa Calm   1.6 km/h 86 % 0.0 mm 0 W/m2
22:30 15.9 °C 13.6 °C 1018.8 hPa Calm     86 % 0.0 mm 0 W/m2
22:35 15.8 °C 13.6 °C 1018.8 hPa Calm     87 % 0.0 mm 0 W/m2
22:40 15.7 °C 13.7 °C 1018.8 hPa Calm     88 % 0.0 mm 0 W/m2
22:45 15.4 °C 13.5 °C 1018.8 hPa Calm   1.6 km/h 88 % 0.0 mm 0 W/m2
22:50 15.3 °C 13.5 °C 1018.8 hPa Calm   1.6 km/h 89 % 0.0 mm 0 W/m2
22:55 15.3 °C 13.5 °C 1018.8 hPa Calm   1.6 km/h 89 % 0.0 mm 0 W/m2
23:00 15.2 °C 13.5 °C 1018.8 hPa WNW 1.6 km/h 1.6 km/h 90 % 0.0 mm 0 W/m2
23:05 15.1 °C 13.5 °C 1018.8 hPa Calm   1.6 km/h 90 % 0.0 mm 0 W/m2
23:10 14.9 °C 13.3 °C 1018.8 hPa Calm   1.6 km/h 90 % 0.0 mm 0 W/m2
23:15 14.8 °C 13.4 °C 1018.8 hPa Calm   1.6 km/h 91 % 0.0 mm 0 W/m2
23:20 14.7 °C 13.0 °C 1019.2 hPa Calm     90 % 0.0 mm 0 W/m2
23:30 14.4 °C 12.9 °C 1019.2 hPa Calm   1.6 km/h 91 % 0.0 mm 0 W/m2
23:40 14.3 °C 12.8 °C 1019.2 hPa Calm   1.6 km/h 91 % 0.0 mm 0 W/m2
23:45 14.2 °C 12.9 °C 1019.2 hPa Calm   1.6 km/h 92 % 0.0 mm 0 W/m2
23:50 14.3 °C 13.0 °C 1019.2 hPa Calm   3.2 km/h 92 % 0.0 mm 0 W/m2
23:55 14.2 °C 12.9 °C 1019.2 hPa Calm   3.2 km/h 92 % 0.0 mm 0 W/m2
Avec l'autorisation de Weather Underground - 1.5 mb